Aérodrome :
LOGIN :

S'inscrire | Disclaimer

   EN    FR    IT 

 










Légende :    VFR   VFR Marginal   IFR   IFR Intensif   IFR Très Intensif
Visi : 
Plafond : 
>= 8 km
>= 3000ft
5 à 8 km
1000 à 3000 ft
1500m à 5 km
500 à 1000 ft
800 à 1500m
200 à 500 ft
< 800m
< 200 ft
Symboles :   Orages  Brouillard  Fortes neiges  Fortes précipitations  Vent > 20 kt
SIGMETs :   Divers  Orages  Givrage  Turbulence  Onde Orograph.  Cendres Volcan.






- Altitude de l'aérodrome : 622 ft
- Code IATA : BRS


EGGD - Bristol Int.

DERNIER METAR :
  • 020620Z AUTO 27008KT 9999 OVC040 06/03 Q1018

METARs EXPIRÉS :
  • 020550Z AUTO 27008KT 9999 OVC040 06/03 Q1018
  • 020520Z AUTO 28007KT 9999 OVC041 06/03 Q1018
  • 020450Z AUTO 27007KT 9999 OVC034 06/03 Q1018
  • 020420Z AUTO 27006KT 9999 OVC032 06/03 Q1018
  • 020350Z AUTO 28006KT 9999 OVC033 05/03 Q1018

TAF TAF EGGD
Valide du 02 à 06h jusqu'au 03 à 06h UTC


020502Z 0206/0306 28004KT 9999 FEW010 SCT040
TEMPO 0206/0306 8000 -SHRA BKN010
PROB30
TEMPO 0206/0209 BKN008
BECMG 0209/0212 27014KT
BECMG 0221/0224 29004KT
ATIS : +44 1275 473 666



MET'MAP, la Météo Aéronautique d'un coup d'oeil ! - Copyright ORBIFLY Décembre 2007 - Disclaimer

ORBIFLY MET'MAP TEAM :

Programmation & Développement : Alexandra Zaïnal
Sur une idée originale de : Baudouin d'Aumeries
Assistance à la programmation : Marc-Olivier Méhu
Soutien technique & logistique : Manuel Goepfert

Contact : metmap@orbifly.com




SOURCES & CREDITS :

   NOAA